createdAt,value
2023-05-23T00:00:01.913Z,94704.00
2023-05-23T00:01:01.930Z,94703.00
2023-05-23T00:02:02.023Z,94704.00
2023-05-23T00:03:02.098Z,94704.00
2023-05-23T00:04:02.234Z,94704.00
2023-05-23T00:05:02.085Z,94704.00
2023-05-23T00:06:02.070Z,94705.00
2023-05-23T00:07:02.069Z,94706.00
2023-05-23T00:08:02.164Z,94707.00
2023-05-23T00:09:02.082Z,94709.00
2023-05-23T00:10:02.121Z,94709.00
2023-05-23T00:11:02.141Z,94706.00
2023-05-23T00:12:02.107Z,94707.00
2023-05-23T00:13:02.155Z,94709.00
2023-05-23T00:14:02.206Z,94707.00
2023-05-23T00:15:02.177Z,94711.00
2023-05-23T00:16:02.245Z,94712.00
2023-05-23T00:17:02.257Z,94711.00
2023-05-23T00:18:02.361Z,94711.00
2023-05-23T00:19:02.373Z,94711.00
2023-05-23T00:20:02.323Z,94713.00
2023-05-23T00:21:02.427Z,94711.00
2023-05-23T00:22:02.379Z,94714.00
2023-05-23T00:23:02.391Z,94712.00
2023-05-23T00:24:02.478Z,94710.00
2023-05-23T00:25:02.440Z,94710.00
2023-05-23T00:26:02.465Z,94712.00
2023-05-23T00:27:02.518Z,94711.00
2023-05-23T00:28:02.600Z,94710.00
2023-05-23T00:29:02.630Z,94710.00
2023-05-23T00:30:02.654Z,94711.00
2023-05-23T00:31:02.724Z,94713.00
2023-05-23T00:32:02.734Z,94713.00
2023-05-23T00:33:02.818Z,94714.00
2023-05-23T00:34:02.824Z,94716.00
2023-05-23T00:35:02.829Z,94717.00
2023-05-23T00:36:02.855Z,94716.00
2023-05-23T00:37:02.893Z,94713.00
2023-05-23T00:38:02.901Z,94714.00
2023-05-23T00:39:02.957Z,94716.00
2023-05-23T00:40:03.040Z,94716.00
2023-05-23T00:41:03.028Z,94714.00
2023-05-23T00:42:03.050Z,94714.00
2023-05-23T00:43:03.106Z,94716.00
2023-05-23T00:44:03.128Z,94712.00
2023-05-23T00:45:03.158Z,94713.00
2023-05-23T00:46:03.175Z,94713.00
2023-05-23T00:47:03.225Z,94714.00
2023-05-23T00:48:03.278Z,94715.00
2023-05-23T00:49:03.299Z,94714.00
2023-05-23T00:50:03.283Z,94717.00
2023-05-23T00:51:03.350Z,94719.00
2023-05-23T00:52:03.380Z,94721.00
2023-05-23T00:53:03.391Z,94721.00
2023-05-23T00:54:03.473Z,94721.00
2023-05-23T00:55:03.528Z,94721.00
2023-05-23T00:56:03.613Z,94723.00
2023-05-23T00:57:03.598Z,94725.00
2023-05-23T00:58:03.635Z,94722.00
2023-05-23T00:59:03.662Z,94723.00
2023-05-23T01:00:03.723Z,94723.00
2023-05-23T01:01:03.757Z,94723.00
2023-05-23T01:02:03.797Z,94722.00
2023-05-23T01:03:03.968Z,94721.00
2023-05-23T01:04:03.925Z,94718.00
2023-05-23T01:05:03.821Z,94715.00
2023-05-23T01:06:03.872Z,94716.00
2023-05-23T01:07:03.901Z,94715.00
2023-05-23T01:08:03.920Z,94712.00
2023-05-23T01:10:23.500Z,94717.00
2023-05-23T01:11:23.542Z,94718.00
2023-05-23T01:12:23.565Z,94720.00
2023-05-23T01:13:23.561Z,94721.00
2023-05-23T01:14:23.549Z,94720.00
2023-05-23T01:15:23.518Z,94723.00
2023-05-23T01:16:23.519Z,94723.00
2023-05-23T01:17:23.542Z,94726.00
2023-05-23T01:18:23.518Z,94727.00
2023-05-23T01:19:23.601Z,94728.00
2023-05-23T01:20:23.481Z,94730.00
2023-05-23T01:21:23.460Z,94732.00
2023-05-23T01:22:23.494Z,94730.00
2023-05-23T01:23:23.435Z,94730.00
2023-05-23T01:24:23.466Z,94731.00
2023-05-23T01:25:23.417Z,94730.00
2023-05-23T01:26:23.451Z,94730.00
2023-05-23T01:27:23.497Z,94731.00
2023-05-23T01:28:23.434Z,94728.00
2023-05-23T01:29:23.447Z,94728.00
2023-05-23T01:30:23.414Z,94728.00
2023-05-23T01:31:23.459Z,94730.00
2023-05-23T01:32:23.392Z,94730.00
2023-05-23T01:33:23.400Z,94732.00
2023-05-23T01:34:23.407Z,94734.00
2023-05-23T01:35:23.348Z,94735.00
2023-05-23T01:36:23.350Z,94735.00
2023-05-23T01:37:23.329Z,94736.00
2023-05-23T01:38:23.333Z,94735.00
2023-05-23T01:39:23.340Z,94735.00
2023-05-23T01:40:23.346Z,94732.00
2023-05-23T01:41:23.324Z,94734.00
2023-05-23T01:42:23.321Z,94732.00
2023-05-23T01:43:23.404Z,94730.00
2023-05-23T01:44:23.277Z,94730.00
2023-05-23T01:45:23.300Z,94728.00
2023-05-23T01:46:23.481Z,94729.00
2023-05-23T01:47:23.307Z,94731.00
2023-05-23T01:48:23.237Z,94729.00
2023-05-23T01:49:23.278Z,94729.00
2023-05-23T01:50:23.261Z,94730.00
2023-05-23T01:51:23.245Z,94733.00
2023-05-23T01:52:23.247Z,94731.00
2023-05-23T01:53:23.239Z,94730.00
2023-05-23T01:54:23.237Z,94732.00
2023-05-23T01:55:23.207Z,94732.00
2023-05-23T01:56:23.216Z,94730.00
2023-05-23T01:57:23.224Z,94729.00
2023-05-23T01:58:23.210Z,94726.00
2023-05-23T01:59:23.258Z,94725.00
2023-05-23T02:00:23.139Z,94726.00
2023-05-23T02:01:23.214Z,94727.00
2023-05-23T02:02:23.244Z,94726.00
2023-05-23T02:03:23.284Z,94725.00
2023-05-23T02:04:23.167Z,94727.00
2023-05-23T02:05:23.159Z,94728.00
2023-05-23T02:06:23.130Z,94731.00
2023-05-23T02:07:23.159Z,94730.00
2023-05-23T02:08:23.117Z,94732.00
2023-05-23T02:09:23.138Z,94735.00
2023-05-23T02:10:23.104Z,94738.00
2023-05-23T02:11:23.110Z,94739.00
2023-05-23T02:12:23.075Z,94738.00
2023-05-23T02:13:23.099Z,94736.00
2023-05-23T02:14:23.075Z,94737.00
2023-05-23T02:15:23.133Z,94736.00
2023-05-23T02:16:23.106Z,94735.00
2023-05-23T02:17:23.184Z,94737.00
2023-05-23T02:18:23.075Z,94739.00
2023-05-23T02:19:23.122Z,94739.00
2023-05-23T02:20:23.120Z,94739.00
2023-05-23T02:21:23.124Z,94737.00
2023-05-23T02:22:23.162Z,94740.00
2023-05-23T02:23:23.189Z,94740.00
2023-05-23T02:24:23.231Z,94740.00
2023-05-23T02:25:23.244Z,94741.00
2023-05-23T02:26:23.306Z,94742.00
2023-05-23T02:27:23.281Z,94742.00
2023-05-23T02:28:23.342Z,94743.00
2023-05-23T02:29:23.321Z,94743.00
2023-05-23T02:30:23.363Z,94743.00
2023-05-23T02:31:23.494Z,94743.00
2023-05-23T02:32:23.410Z,94742.00
2023-05-23T02:33:23.509Z,94747.00
2023-05-23T02:34:23.528Z,94747.00
2023-05-23T02:35:23.525Z,94747.00
2023-05-23T02:36:23.530Z,94748.00
2023-05-23T02:37:23.590Z,94748.00
2023-05-23T02:38:23.575Z,94748.00
2023-05-23T02:39:23.614Z,94746.00
2023-05-23T02:40:23.582Z,94749.00
2023-05-23T02:41:23.638Z,94750.00
2023-05-23T02:42:23.662Z,94753.00
2023-05-23T02:43:23.717Z,94753.00
2023-05-23T02:44:23.753Z,94756.00
2023-05-23T02:45:23.764Z,94756.00
2023-05-23T02:46:23.789Z,94755.00
2023-05-23T02:47:23.822Z,94756.00
2023-05-23T02:48:23.774Z,94755.00
2023-05-23T02:49:23.850Z,94756.00
2023-05-23T02:50:23.798Z,94757.00
2023-05-23T02:51:23.873Z,94755.00
2023-05-23T02:52:23.914Z,94757.00
2023-05-23T02:53:23.956Z,94757.00
2023-05-23T02:54:24.010Z,94758.00
2023-05-23T02:55:24.095Z,94757.00
2023-05-23T02:56:24.117Z,94756.00
2023-05-23T02:57:24.187Z,94759.00
2023-05-23T02:58:24.191Z,94762.00
2023-05-23T02:59:24.233Z,94762.00
2023-05-23T03:00:24.248Z,94765.00
2023-05-23T03:01:24.338Z,94764.00
2023-05-23T03:02:24.351Z,94764.00
2023-05-23T03:03:24.520Z,94764.00
2023-05-23T03:04:24.390Z,94764.00
2023-05-23T03:05:24.439Z,94765.00
2023-05-23T03:06:26.052Z,94765.00
2023-05-23T03:07:28.708Z,94767.00
2023-05-23T03:08:24.488Z,94767.00
2023-05-23T03:09:24.472Z,94766.00
2023-05-23T03:10:24.466Z,94765.00
2023-05-23T03:11:24.451Z,94764.00
2023-05-23T03:12:24.480Z,94764.00
2023-05-23T03:13:24.445Z,94764.00
2023-05-23T03:14:24.461Z,94764.00
2023-05-23T03:15:24.445Z,94763.00
2023-05-23T03:16:24.480Z,94762.00
2023-05-23T03:17:24.455Z,94761.00
2023-05-23T03:18:24.402Z,94763.00
2023-05-23T03:19:24.579Z,94763.00
2023-05-23T03:20:24.421Z,94762.00
2023-05-23T03:21:24.418Z,94765.00
2023-05-23T03:22:24.383Z,94767.00
2023-05-23T03:23:24.403Z,94765.00
2023-05-23T03:24:24.404Z,94767.00
2023-05-23T03:25:24.377Z,94766.00
2023-05-23T03:26:24.359Z,94768.00
2023-05-23T03:27:24.366Z,94767.00
2023-05-23T03:28:24.377Z,94766.00
2023-05-23T03:29:24.389Z,94766.00
2023-05-23T03:30:24.333Z,94768.00
2023-05-23T03:31:24.377Z,94767.00
2023-05-23T03:32:24.454Z,94767.00
2023-05-23T03:33:24.411Z,94766.00
2023-05-23T03:34:24.493Z,94769.00
2023-05-23T03:35:24.566Z,94770.00
2023-05-23T03:36:24.530Z,94773.00
2023-05-23T03:37:24.592Z,94774.00
2023-05-23T03:38:24.647Z,94777.00
2023-05-23T03:39:24.698Z,94779.00
2023-05-23T03:40:24.761Z,94780.00
2023-05-23T03:41:24.759Z,94780.00
2023-05-23T03:42:24.835Z,94778.00
2023-05-23T03:43:24.838Z,94781.00
2023-05-23T03:44:24.847Z,94784.00
2023-05-23T03:45:24.840Z,94788.00
2023-05-23T03:46:24.871Z,94790.00
2023-05-23T03:47:24.905Z,94788.00
2023-05-23T03:48:24.919Z,94790.00
2023-05-23T03:49:24.922Z,94792.00
2023-05-23T03:50:24.985Z,94796.00
2023-05-23T03:51:25.064Z,94795.00
2023-05-23T03:52:24.993Z,94799.00
2023-05-23T03:53:25.063Z,94799.00
2023-05-23T03:54:25.110Z,94802.00
2023-05-23T03:55:25.078Z,94804.00
2023-05-23T03:56:25.129Z,94806.00
2023-05-23T03:57:25.121Z,94806.00
2023-05-23T03:58:25.094Z,94807.00
2023-05-23T03:59:25.142Z,94806.00
2023-05-23T04:00:25.151Z,94806.00
2023-05-23T04:01:25.160Z,94812.00
2023-05-23T04:02:25.240Z,94809.00
2023-05-23T04:03:25.285Z,94810.00
2023-05-23T04:04:25.339Z,94812.00
2023-05-23T04:05:25.257Z,94813.00
2023-05-23T04:06:25.302Z,94814.00
2023-05-23T04:07:26.249Z,94815.00
2023-05-23T04:08:25.362Z,94818.00
2023-05-23T04:09:25.366Z,94817.00
2023-05-23T04:10:25.462Z,94818.00
2023-05-23T04:11:25.420Z,94822.00
2023-05-23T04:12:25.416Z,94822.00
2023-05-23T04:13:25.445Z,94820.00
2023-05-23T04:14:25.483Z,94820.00
2023-05-23T04:15:25.524Z,94820.00
2023-05-23T04:16:25.616Z,94821.00
2023-05-23T04:17:25.713Z,94819.00
2023-05-23T04:18:25.630Z,94820.00
2023-05-23T04:19:25.752Z,94823.00
2023-05-23T04:20:25.728Z,94823.00
2023-05-23T04:21:25.765Z,94826.00
2023-05-23T04:22:25.822Z,94827.00
2023-05-23T04:23:25.870Z,94827.00
2023-05-23T04:24:25.825Z,94828.00
2023-05-23T04:25:25.831Z,94830.00
2023-05-23T04:26:25.846Z,94830.00
2023-05-23T04:27:25.901Z,94831.00
2023-05-23T04:28:25.891Z,94832.00
2023-05-23T04:29:25.988Z,94832.00
2023-05-23T04:30:26.031Z,94835.00
2023-05-23T04:31:26.094Z,94837.00
2023-05-23T04:32:26.056Z,94836.00
2023-05-23T04:33:26.105Z,94839.00
2023-05-23T04:34:26.168Z,94838.00
2023-05-23T04:35:26.214Z,94842.00
2023-05-23T04:36:26.217Z,94839.00
2023-05-23T04:37:26.560Z,94839.00
2023-05-23T04:38:26.279Z,94838.00
2023-05-23T04:39:26.425Z,94839.00
2023-05-23T04:40:26.377Z,94840.00
2023-05-23T04:41:26.487Z,94844.00
2023-05-23T04:42:26.469Z,94842.00
2023-05-23T04:43:26.551Z,94844.00
2023-05-23T04:44:26.593Z,94841.00
2023-05-23T04:45:26.606Z,94842.00
2023-05-23T04:46:26.761Z,94842.00
2023-05-23T04:47:26.616Z,94845.00
2023-05-23T04:48:26.610Z,94847.00
2023-05-23T04:49:26.713Z,94848.00
2023-05-23T04:50:26.728Z,94849.00
2023-05-23T04:51:26.762Z,94849.00
2023-05-23T04:52:26.769Z,94849.00
2023-05-23T04:53:26.792Z,94851.00
2023-05-23T04:54:26.848Z,94851.00
2023-05-23T04:55:26.901Z,94850.00
2023-05-23T04:56:26.870Z,94852.00
2023-05-23T04:57:26.899Z,94854.00
2023-05-23T04:58:26.943Z,94855.00
2023-05-23T04:59:26.930Z,94854.00
2023-05-23T05:00:26.966Z,94855.00
2023-05-23T05:01:27.483Z,94857.00
2023-05-23T05:02:27.124Z,94858.00
2023-05-23T05:03:27.137Z,94861.00
2023-05-23T05:04:27.312Z,94860.00
2023-05-23T05:05:27.227Z,94859.00
2023-05-23T05:06:27.249Z,94861.00
2023-05-23T05:07:27.328Z,94863.00
2023-05-23T05:08:27.367Z,94865.00
2023-05-23T05:09:27.407Z,94868.00
2023-05-23T05:10:27.418Z,94869.00
2023-05-23T05:11:27.496Z,94867.00
2023-05-23T05:12:27.490Z,94867.00
2023-05-23T05:13:27.560Z,94868.00
2023-05-23T05:14:27.605Z,94870.00
2023-05-23T05:15:27.655Z,94869.00
2023-05-23T05:16:27.696Z,94869.00
2023-05-23T05:17:27.827Z,94871.00
2023-05-23T05:18:27.756Z,94871.00
2023-05-23T05:19:27.825Z,94874.00
2023-05-23T05:20:27.814Z,94874.00
2023-05-23T05:21:27.858Z,94873.00
2023-05-23T05:22:27.893Z,94877.00
2023-05-23T05:23:27.951Z,94875.00
2023-05-23T05:24:28.027Z,94878.00
2023-05-23T05:25:28.002Z,94880.00
2023-05-23T05:26:28.015Z,94881.00
2023-05-23T05:27:28.169Z,94880.00
2023-05-23T05:28:28.063Z,94881.00
2023-05-23T05:29:28.112Z,94882.00
2023-05-23T05:30:28.109Z,94881.00
2023-05-23T05:31:28.229Z,94884.00
2023-05-23T05:32:28.248Z,94884.00
2023-05-23T05:33:28.306Z,94888.00
2023-05-23T05:34:28.331Z,94888.00
2023-05-23T05:35:28.361Z,94890.00
2023-05-23T05:36:28.373Z,94890.00
2023-05-23T05:37:28.480Z,94894.00
2023-05-23T05:38:28.477Z,94890.00
2023-05-23T05:39:28.604Z,94891.00
2023-05-23T05:40:28.572Z,94893.00
2023-05-23T05:41:28.609Z,94894.00
2023-05-23T05:42:28.613Z,94897.00
2023-05-23T05:43:28.722Z,94898.00
2023-05-23T05:44:28.685Z,94896.00
2023-05-23T05:45:28.740Z,94897.00
2023-05-23T05:46:28.802Z,94896.00
2023-05-23T05:47:28.805Z,94897.00
2023-05-23T05:48:28.846Z,94898.00
2023-05-23T05:49:28.864Z,94898.00
2023-05-23T05:50:28.841Z,94901.00
2023-05-23T05:51:28.897Z,94903.00
2023-05-23T05:52:28.915Z,94900.00
2023-05-23T05:53:28.961Z,94902.00
2023-05-23T05:54:29.003Z,94901.00
2023-05-23T05:55:29.080Z,94900.00
2023-05-23T05:56:29.124Z,94900.00
2023-05-23T05:57:29.077Z,94903.00
2023-05-23T05:58:29.106Z,94902.00
2023-05-23T05:59:30.573Z,94901.00
2023-05-23T06:00:29.111Z,94901.00
2023-05-23T06:01:29.134Z,94901.00
2023-05-23T06:02:29.127Z,94901.00
2023-05-23T06:03:29.186Z,94899.00
2023-05-23T06:04:29.133Z,94901.00
2023-05-23T06:05:29.050Z,94900.00
2023-05-23T06:06:29.047Z,94897.00
2023-05-23T06:07:29.060Z,94898.00
2023-05-23T06:08:29.069Z,94898.00
2023-05-23T06:09:29.056Z,94900.00
2023-05-23T06:10:29.034Z,94902.00
2023-05-23T06:11:29.069Z,94904.00
2023-05-23T06:12:29.023Z,94904.00
2023-05-23T06:13:29.090Z,94905.00
2023-05-23T06:14:29.046Z,94906.00
2023-05-23T06:15:29.061Z,94908.00
2023-05-23T06:16:29.018Z,94909.00
2023-05-23T06:17:29.029Z,94910.00
2023-05-23T06:18:29.058Z,94908.00
2023-05-23T06:19:29.055Z,94909.00
2023-05-23T06:20:29.093Z,94911.00
2023-05-23T06:21:28.961Z,94911.00
2023-05-23T06:22:28.972Z,94914.00
2023-05-23T06:23:28.935Z,94919.00
2023-05-23T06:24:28.961Z,94919.00
2023-05-23T06:25:28.918Z,94919.00
2023-05-23T06:26:28.909Z,94918.00
2023-05-23T06:27:28.949Z,94920.00
2023-05-23T06:28:28.948Z,94920.00
2023-05-23T06:29:28.956Z,94923.00
2023-05-23T06:30:28.915Z,94923.00
2023-05-23T06:31:28.998Z,94926.00
2023-05-23T06:32:28.970Z,94928.00
2023-05-23T06:33:28.891Z,94927.00
2023-05-23T06:34:28.889Z,94926.00
2023-05-23T06:35:28.852Z,94929.00
2023-05-23T06:36:28.873Z,94929.00
2023-05-23T06:37:28.885Z,94930.00
2023-05-23T06:38:28.842Z,94932.00
2023-05-23T06:39:28.853Z,94933.00
2023-05-23T06:40:28.909Z,94933.00
2023-05-23T06:41:28.824Z,94933.00
2023-05-23T06:42:28.829Z,94931.00
2023-05-23T06:43:28.808Z,94930.00
2023-05-23T06:44:28.802Z,94930.00
2023-05-23T06:45:28.804Z,94929.00
2023-05-23T06:46:28.840Z,94931.00
2023-05-23T06:47:28.939Z,94933.00
2023-05-23T06:48:28.858Z,94936.00
2023-05-23T06:49:28.966Z,94938.00
2023-05-23T06:50:28.933Z,94937.00
2023-05-23T06:51:29.119Z,94937.00
2023-05-23T06:52:28.922Z,94937.00
2023-05-23T06:53:28.987Z,94938.00
2023-05-23T06:54:29.043Z,94938.00
2023-05-23T06:55:29.063Z,94942.00
2023-05-23T06:56:29.155Z,94941.00
2023-05-23T06:57:29.134Z,94942.00
2023-05-23T06:58:29.125Z,94944.00
2023-05-23T06:59:29.193Z,94943.00
2023-05-23T07:00:29.209Z,94944.00
2023-05-23T07:01:29.225Z,94944.00
2023-05-23T07:02:29.274Z,94944.00
2023-05-23T07:03:29.345Z,94947.00
2023-05-23T07:04:29.370Z,94949.00
2023-05-23T07:05:29.440Z,94950.00
2023-05-23T07:06:29.494Z,94951.00
2023-05-23T07:07:29.480Z,94951.00
2023-05-23T07:08:29.534Z,94952.00
2023-05-23T07:09:29.582Z,94954.00
2023-05-23T07:10:29.584Z,94950.00
2023-05-23T07:11:29.629Z,94952.00
2023-05-23T07:12:29.627Z,94952.00
2023-05-23T07:13:29.673Z,94954.00
2023-05-23T07:14:29.710Z,94959.00
2023-05-23T07:15:31.680Z,94960.00
2023-05-23T07:16:29.867Z,94961.00
2023-05-23T07:17:29.786Z,94961.00
2023-05-23T07:18:30.063Z,94960.00
2023-05-23T07:19:29.947Z,94961.00
2023-05-23T07:20:29.826Z,94961.00
2023-05-23T07:21:29.855Z,94960.00
2023-05-23T07:22:29.976Z,94962.00
2023-05-23T07:23:29.862Z,94964.00
2023-05-23T07:24:29.927Z,94965.00
2023-05-23T07:25:29.915Z,94963.00
2023-05-23T07:26:29.970Z,94962.00
2023-05-23T07:27:29.970Z,94963.00
2023-05-23T07:28:30.094Z,94962.00
2023-05-23T07:29:30.007Z,94962.00
2023-05-23T07:30:32.035Z,94963.00
2023-05-23T07:31:30.012Z,94962.00
2023-05-23T07:32:30.076Z,94964.00
2023-05-23T07:33:30.039Z,94963.00
2023-05-23T07:34:30.035Z,94963.00
2023-05-23T07:35:30.006Z,94966.00
2023-05-23T07:36:30.031Z,94965.00
2023-05-23T07:37:30.069Z,94964.00
2023-05-23T07:38:30.023Z,94962.00
2023-05-23T07:39:29.970Z,94962.00
2023-05-23T07:40:30.271Z,94963.00
2023-05-23T07:41:29.981Z,94964.00
2023-05-23T07:42:29.942Z,94966.00
2023-05-23T07:43:29.949Z,94966.00
2023-05-23T07:44:30.003Z,94964.00
2023-05-23T07:45:30.046Z,94964.00
2023-05-23T07:46:29.928Z,94965.00
2023-05-23T07:47:30.020Z,94968.00
2023-05-23T07:48:29.943Z,94971.00
2023-05-23T07:49:29.940Z,94972.00
2023-05-23T07:50:29.925Z,94971.00
2023-05-23T07:51:29.937Z,94970.00
2023-05-23T07:52:29.866Z,94970.00
2023-05-23T07:53:29.864Z,94972.00
2023-05-23T07:54:29.901Z,94974.00
2023-05-23T07:55:29.861Z,94976.00
2023-05-23T07:56:29.885Z,94977.00
2023-05-23T07:57:29.822Z,94981.00
2023-05-23T07:58:29.854Z,94983.00
2023-05-23T07:59:29.859Z,94983.00
2023-05-23T08:00:29.812Z,94984.00
2023-05-23T08:01:29.878Z,94982.00
2023-05-23T08:02:29.927Z,94982.00
2023-05-23T08:03:29.809Z,94981.00
2023-05-23T08:04:29.918Z,94981.00
2023-05-23T08:05:29.810Z,94980.00
2023-05-23T08:06:29.802Z,94981.00
2023-05-23T08:07:29.809Z,94985.00
2023-05-23T08:08:29.774Z,94988.00
2023-05-23T08:09:29.826Z,94989.00
2023-05-23T08:10:29.753Z,94988.00
2023-05-23T08:11:29.746Z,94990.00
2023-05-23T08:12:29.749Z,94987.00
2023-05-23T08:13:29.737Z,94988.00
2023-05-23T08:14:42.273Z,94987.00
2023-05-23T08:15:30.816Z,94988.00
2023-05-23T08:16:30.361Z,94989.00
2023-05-23T08:17:29.775Z,94988.00
2023-05-23T08:18:29.843Z,94991.00
2023-05-23T08:19:29.772Z,94989.00
2023-05-23T08:20:29.705Z,94989.00
2023-05-23T08:21:29.685Z,94991.00
2023-05-23T08:22:29.696Z,94992.00
2023-05-23T08:23:29.751Z,94989.00
2023-05-23T08:24:29.716Z,94990.00
2023-05-23T08:25:29.676Z,94993.00
2023-05-23T08:26:29.650Z,94994.00
2023-05-23T08:27:29.692Z,94993.00
2023-05-23T08:28:29.741Z,94992.00
2023-05-23T08:29:29.830Z,94990.00
2023-05-23T08:30:29.867Z,94991.00
2023-05-23T08:31:29.973Z,94990.00
2023-05-23T08:32:29.933Z,94991.00
2023-05-23T08:33:29.939Z,94991.00
2023-05-23T08:34:29.919Z,94992.00
2023-05-23T08:35:40.851Z,94991.00
2023-05-23T08:36:29.953Z,94990.00
2023-05-23T08:37:29.987Z,94991.00
2023-05-23T08:38:29.964Z,94988.00
2023-05-23T08:39:29.870Z,94990.00
2023-05-23T08:40:29.947Z,94992.00
2023-05-23T08:41:29.950Z,94990.00
2023-05-23T08:42:29.970Z,94993.00
2023-05-23T08:43:29.894Z,94991.00
2023-05-23T08:44:29.910Z,94992.00
2023-05-23T08:45:29.910Z,94991.00
2023-05-23T08:46:30.029Z,94990.00
2023-05-23T08:47:30.020Z,94991.00
2023-05-23T08:48:29.999Z,94991.00
2023-05-23T08:49:30.074Z,94990.00
2023-05-23T08:50:30.010Z,94989.00
2023-05-23T08:51:30.035Z,94987.00
2023-05-23T08:52:30.155Z,94986.00
2023-05-23T08:53:30.093Z,94987.00
2023-05-23T08:54:30.118Z,94990.00
2023-05-23T08:55:30.070Z,94987.00
2023-05-23T08:56:30.193Z,94987.00
2023-05-23T08:57:30.166Z,94986.00
2023-05-23T08:58:30.185Z,94986.00
2023-05-23T08:59:30.199Z,94986.00
2023-05-23T09:00:30.175Z,94986.00
2023-05-23T09:01:30.223Z,94985.00
2023-05-23T09:02:30.253Z,94987.00
2023-05-23T09:03:30.249Z,94988.00
2023-05-23T09:04:30.306Z,94986.00
2023-05-23T09:05:30.403Z,94986.00
2023-05-23T09:06:30.310Z,94986.00
2023-05-23T09:07:30.336Z,94984.00
2023-05-23T09:08:30.339Z,94984.00
2023-05-23T09:09:30.497Z,94981.00
2023-05-23T09:10:30.502Z,94981.00
2023-05-23T09:11:30.345Z,94978.00
2023-05-23T09:12:30.404Z,94978.00
2023-05-23T09:13:30.415Z,94982.00
2023-05-23T09:14:30.530Z,94978.00
2023-05-23T09:15:38.107Z,94980.00
2023-05-23T09:16:30.521Z,94982.00
2023-05-23T09:17:32.447Z,94984.00
2023-05-23T09:18:30.458Z,94983.00
2023-05-23T09:19:30.512Z,94980.00
2023-05-23T09:20:30.465Z,94981.00
2023-05-23T09:21:30.730Z,94977.00
2023-05-23T09:22:30.462Z,94977.00
2023-05-23T09:23:30.553Z,94976.00
2023-05-23T09:24:30.420Z,94973.00
2023-05-23T09:25:30.418Z,94972.00
2023-05-23T09:26:30.453Z,94971.00
2023-05-23T09:27:30.400Z,94970.00
2023-05-23T09:28:30.440Z,94969.00
2023-05-23T09:29:30.480Z,94967.00
2023-05-23T09:30:30.514Z,94967.00
2023-05-23T09:31:30.522Z,94966.00
2023-05-23T09:32:30.578Z,94965.00
2023-05-23T09:33:30.594Z,94966.00
2023-05-23T09:34:30.617Z,94965.00
2023-05-23T09:35:30.682Z,94965.00
2023-05-23T09:36:30.711Z,94964.00
2023-05-23T09:37:30.732Z,94964.00
2023-05-23T09:38:30.753Z,94964.00
2023-05-23T09:39:31.490Z,94963.00
2023-05-23T09:40:31.019Z,94961.00
2023-05-23T09:41:30.840Z,94960.00
2023-05-23T09:42:30.856Z,94960.00
2023-05-23T09:43:30.922Z,94957.00
2023-05-23T09:44:30.968Z,94954.00
2023-05-23T09:45:31.092Z,94953.00
2023-05-23T09:46:31.121Z,94953.00
2023-05-23T09:47:31.114Z,94950.00
2023-05-23T09:48:31.114Z,94952.00
2023-05-23T09:49:31.141Z,94950.00
2023-05-23T09:50:31.104Z,94949.00
2023-05-23T09:51:31.144Z,94945.00
2023-05-23T09:52:31.192Z,94944.00
2023-05-23T09:53:31.241Z,94947.00
2023-05-23T09:54:31.273Z,94947.00
2023-05-23T09:55:31.377Z,94945.00
2023-05-23T09:56:31.321Z,94943.00
2023-05-23T09:57:31.370Z,94942.00
2023-05-23T09:58:31.400Z,94938.00
2023-05-23T09:59:31.455Z,94941.00
2023-05-23T10:00:31.458Z,94938.00
2023-05-23T10:01:31.565Z,94936.00
2023-05-23T10:02:31.596Z,94934.00
2023-05-23T10:03:31.612Z,94936.00
2023-05-23T10:04:31.653Z,94938.00
2023-05-23T10:05:31.641Z,94933.00
2023-05-23T10:06:31.705Z,94930.00
2023-05-23T10:07:31.688Z,94929.00
2023-05-23T10:08:31.782Z,94929.00
2023-05-23T10:09:31.762Z,94928.00
2023-05-23T10:10:31.776Z,94924.00
2023-05-23T10:11:31.780Z,94920.00
2023-05-23T10:12:31.834Z,94916.00
2023-05-23T10:13:31.898Z,94913.00
2023-05-23T10:14:31.890Z,94915.00
2023-05-23T10:15:31.915Z,94912.00
2023-05-23T10:16:32.027Z,94912.00
2023-05-23T10:17:32.128Z,94912.00
2023-05-23T10:18:32.082Z,94910.00
2023-05-23T10:19:32.277Z,94907.00
2023-05-23T10:20:32.118Z,94902.00
2023-05-23T10:21:32.204Z,94903.00
2023-05-23T10:22:32.191Z,94900.00
2023-05-23T10:23:32.191Z,94899.00
2023-05-23T10:24:39.861Z,94899.00
2023-05-23T10:25:32.219Z,94897.00
2023-05-23T10:26:32.273Z,94893.00
2023-05-23T10:27:32.222Z,94894.00
2023-05-23T10:28:32.263Z,94891.00
2023-05-23T10:29:32.209Z,94890.00
2023-05-23T10:30:32.157Z,94884.00
2023-05-23T10:31:32.210Z,94879.00
2023-05-23T10:32:32.232Z,94880.00
2023-05-23T10:33:32.152Z,94880.00
2023-05-23T10:34:32.208Z,94876.00
2023-05-23T10:35:32.324Z,94874.00
2023-05-23T10:36:32.166Z,94873.00
2023-05-23T10:37:32.134Z,94870.00
2023-05-23T10:38:32.144Z,94869.00
2023-05-23T10:39:32.169Z,94868.00
2023-05-23T10:40:32.169Z,94864.00
2023-05-23T10:41:32.201Z,94865.00
2023-05-23T10:42:32.165Z,94860.00
2023-05-23T10:43:32.266Z,94859.00
2023-05-23T10:44:32.112Z,94858.00
2023-05-23T10:45:32.906Z,94860.00
2023-05-23T10:46:32.302Z,94856.00
2023-05-23T10:47:33.253Z,94857.00
2023-05-23T10:48:34.571Z,94856.00
2023-05-23T10:49:32.334Z,94851.00
2023-05-23T10:50:32.337Z,94847.00
2023-05-23T10:51:32.367Z,94848.00
2023-05-23T10:52:32.448Z,94842.00
2023-05-23T10:53:32.476Z,94840.00
2023-05-23T10:54:32.497Z,94838.00
2023-05-23T10:55:32.595Z,94836.00
2023-05-23T10:56:32.595Z,94832.00
2023-05-23T10:57:32.653Z,94831.00
2023-05-23T10:58:32.613Z,94831.00
2023-05-23T10:59:32.632Z,94830.00
2023-05-23T11:00:32.723Z,94831.00
2023-05-23T11:01:32.786Z,94829.00
2023-05-23T11:02:32.805Z,94833.00
2023-05-23T11:03:32.891Z,94829.00
2023-05-23T11:04:32.870Z,94825.00
2023-05-23T11:05:40.457Z,94828.00
2023-05-23T11:06:32.945Z,94827.00
2023-05-23T11:07:32.907Z,94822.00
2023-05-23T11:08:46.972Z,94827.00
2023-05-23T11:09:33.886Z,94823.00
2023-05-23T11:10:32.824Z,94820.00
2023-05-23T11:11:32.864Z,94824.00
2023-05-23T11:12:32.793Z,94821.00
2023-05-23T11:13:32.880Z,94815.00
2023-05-23T11:14:32.805Z,94816.00
2023-05-23T11:15:32.871Z,94814.00
2023-05-23T11:16:32.859Z,94813.00
2023-05-23T11:17:32.816Z,94811.00
2023-05-23T11:18:32.755Z,94809.00
2023-05-23T11:19:32.794Z,94811.00
2023-05-23T11:20:32.777Z,94809.00
2023-05-23T11:21:32.792Z,94810.00
2023-05-23T11:22:32.858Z,94805.00
2023-05-23T11:23:32.857Z,94802.00
2023-05-23T11:24:32.998Z,94801.00
2023-05-23T11:25:32.910Z,94802.00
2023-05-23T11:26:32.987Z,94801.00
2023-05-23T11:27:32.968Z,94798.00
2023-05-23T11:28:33.128Z,94798.00
2023-05-23T11:29:33.082Z,94798.00
2023-05-23T11:30:33.416Z,94790.00
2023-05-23T11:31:33.089Z,94793.00
2023-05-23T11:32:33.215Z,94788.00
2023-05-23T11:33:33.142Z,94789.00
2023-05-23T11:34:33.198Z,94787.00
2023-05-23T11:35:33.170Z,94788.00
2023-05-23T11:36:33.209Z,94787.00
2023-05-23T11:37:33.209Z,94783.00
2023-05-23T11:38:33.256Z,94780.00
2023-05-23T11:39:33.336Z,94781.00
2023-05-23T11:40:33.328Z,94785.00
2023-05-23T11:41:33.375Z,94784.00
2023-05-23T11:42:33.400Z,94782.00
2023-05-23T11:43:33.443Z,94784.00
2023-05-23T11:44:33.483Z,94781.00
2023-05-23T11:45:33.718Z,94773.00